North Mounds, Illinois
Current Conditions -  °F | °C
As of 9:15 PM on Monday 26 Jan 2015 (Local Time) from KCIR Reporting Station
Clear Clear  
Wind Chill: 32°   Ceiling: Unl
Heat Index: 32°   Visibility: 7mi
Dew Point: 29°   Wind: 3mph
Humidity: 90%   Direction: 40°NE
Pressure: 29.95"   Gusts: NA
Location:  37.1202°N, 89.219°W
Report Text: KCIR 270315Z AUTO 04003KT 7SM CLR 00/M02 A2995 RMK AO2 T10021016
Loading
Personal Weather Stations






























Interactive Weather Map New forecast layout! Learn more

10-Day Weather Forecast

Advertisements
Track Severe Weather on mobile